Time;durP1;ratioP1;P1;durP2;ratioP2;P2;SDS_P1;SDS_P2;PMS_P1;PMS_P2;Temp;Humidity;BMP_temperature;BMP_pressure;BME280_temperature;BME280_humidity;BME280_pressure;Samples;Min_cycle;Max_cycle;Signal;HPM_P1;HPM_P2
2022/11/21 00:00:30;;;;;;;8.10;3.03;;;;;;;;;;5004380;28;20223;-84
2022/11/21 00:02:58;;;;;;;3.23;2.23;;;;;;;;;;5009580;28;20670;-82
2022/11/21 00:05:25;;;;;;;6.47;2.60;;;;;;;;;;5008901;28;20327;-83
2022/11/21 00:07:54;;;;;;;7.53;2.83;;;;;;;;;;5006418;28;20257;-85
2022/11/21 00:10:22;;;;;;;5.10;2.97;;;;;;;;;;4994291;28;20231;-82
2022/11/21 00:12:53;;;;;;;6.03;2.37;;;;;;;;;;4993129;28;20575;-85
2022/11/21 00:15:20;;;;;;;7.17;3.07;;;;;;;;;;4992713;28;20211;-83
2022/11/21 00:17:47;;;;;;;7.40;2.87;;;;;;;;;;5009995;28;20231;-83
2022/11/21 00:20:14;;;;;;;4.53;2.97;;;;;;;;;;5009366;28;20223;-82
2022/11/21 00:22:41;;;;;;;6.10;2.63;;;;;;;;;;4992410;28;20212;-83
2022/11/21 00:25:11;;;;;;;5.87;3.30;;;;;;;;;;4993640;28;20211;-82
2022/11/21 00:27:38;;;;;;;2.07;1.67;;;;;;;;;;5014610;28;20223;-85
2022/11/21 00:30:05;;;;;;;8.63;2.90;;;;;;;;;;5016343;28;20261;-81
2022/11/21 00:32:33;;;;;;;4.90;2.47;;;;;;;;;;5014275;28;20704;-83
2022/11/21 00:35:00;;;;;;;3.20;2.40;;;;;;;;;;5017106;28;20207;-85
2022/11/21 00:37:27;;;;;;;4.80;2.30;;;;;;;;;;5016498;28;20231;-83
2022/11/21 00:39:54;;;;;;;4.40;2.40;;;;;;;;;;5017703;28;20223;-83
2022/11/21 00:42:22;;;;;;;4.23;2.67;;;;;;;;;;5016709;28;20242;-84
2022/11/21 00:44:50;;;;;;;3.57;2.47;;;;;;;;;;5017298;28;20214;-83
2022/11/21 00:47:17;;;;;;;6.50;2.70;;;;;;;;;;5016413;28;20787;-84
2022/11/21 00:49:44;;;;;;;5.43;2.33;;;;;;;;;;5012403;28;20236;-82
2022/11/21 00:52:11;;;;;;;3.20;2.23;;;;;;;;;;5004605;28;20715;-83
2022/11/21 00:54:38;;;;;;;3.33;2.30;;;;;;;;;;5004651;28;20211;-84
2022/11/21 00:57:05;;;;;;;6.23;2.87;;;;;;;;;;4996624;28;20236;-82
2022/11/21 00:59:34;;;;;;;4.07;2.40;;;;;;;;;;4996756;28;20228;-82
2022/11/21 01:02:01;;;;;;;4.53;2.87;;;;;;;;;;5012480;28;20714;-82
2022/11/21 01:04:31;;;;;;;5.20;2.97;;;;;;;;;;5016533;28;20195;-83
2022/11/21 01:06:58;;;;;;;5.30;3.43;;;;;;;;;;4999269;28;20654;-83
2022/11/21 01:09:25;;;;;;;5.03;2.83;;;;;;;;;;5009277;28;20208;-83
2022/11/21 01:11:52;;;;;;;5.13;2.83;;;;;;;;;;4996434;28;20259;-82
2022/11/21 01:14:19;;;;;;;7.20;3.70;;;;;;;;;;4996863;28;20208;-85
2022/11/21 01:16:48;;;;;;;7.67;2.70;;;;;;;;;;5010629;28;20239;-84
2022/11/21 01:19:15;;;;;;;6.80;3.37;;;;;;;;;;4998447;28;20223;-84
2022/11/21 01:21:42;;;;;;;6.27;2.87;;;;;;;;;;4995956;28;20244;-82
2022/11/21 01:24:11;;;;;;;6.93;2.73;;;;;;;;;;4996591;28;20207;-81
2022/11/21 01:26:38;;;;;;;5.93;3.10;;;;;;;;;;4994946;28;20231;-82
2022/11/21 01:29:05;;;;;;;8.57;3.10;;;;;;;;;;4997250;28;20218;-84
2022/11/21 01:31:32;;;;;;;8.80;2.70;;;;;;;;;;5006901;28;20232;-83
2022/11/21 01:34:01;;;;;;;6.83;2.80;;;;;;;;;;4995466;28;20215;-82
2022/11/21 01:36:30;;;;;;;9.37;3.23;;;;;;;;;;5012672;28;20783;-83
2022/11/21 01:38:58;;;;;;;8.77;3.00;;;;;;;;;;5000256;28;20214;-83
2022/11/21 01:41:28;;;;;;;14.27;4.00;;;;;;;;;;5006455;28;20326;-81
2022/11/21 01:43:55;;;;;;;7.70;2.60;;;;;;;;;;4996016;28;20661;-83
2022/11/21 01:46:23;;;;;;;8.17;2.77;;;;;;;;;;4997753;28;20727;-84
2022/11/21 01:48:52;;;;;;;6.53;2.47;;;;;;;;;;5004799;28;20200;-83
2022/11/21 01:51:23;;;;;;;5.73;2.73;;;;;;;;;;4995119;28;20231;-81
2022/11/21 01:53:53;;;;;;;7.30;2.47;;;;;;;;;;4995715;28;20204;-82
2022/11/21 01:56:21;;;;;;;8.53;2.50;;;;;;;;;;5013239;28;20731;-85
2022/11/21 01:58:48;;;;;;;8.27;2.97;;;;;;;;;;5014556;28;20227;-84
2022/11/21 02:01:15;;;;;;;9.23;4.13;;;;;;;;;;5004667;28;20242;-83
2022/11/21 02:03:44;;;;;;;6.90;2.83;;;;;;;;;;4997435;28;20219;-82
2022/11/21 02:06:12;;;;;;;7.20;2.47;;;;;;;;;;5010920;28;20703;-86
2022/11/21 02:08:41;;;;;;;5.13;2.60;;;;;;;;;;4999686;28;20211;-84
2022/11/21 02:11:11;;;;;;;7.83;3.07;;;;;;;;;;5011269;28;20241;-82
2022/11/21 02:13:38;;;;;;;8.60;2.80;;;;;;;;;;4998251;28;20202;-82
2022/11/21 02:16:06;;;;;;;7.60;3.60;;;;;;;;;;5013535;28;20231;-83
2022/11/21 02:18:33;;;;;;;3.90;2.23;;;;;;;;;;5013602;28;20224;-84
2022/11/21 02:21:03;;;;;;;6.07;2.37;;;;;;;;;;5013181;28;20251;-81
2022/11/21 02:23:36;;;;;;;10.13;2.60;;;;;;;;;;4994355;28;20736;-81
2022/11/21 02:26:05;;;;;;;7.33;2.70;;;;;;;;;;4999737;28;20691;-81
2022/11/21 02:28:32;;;;;;;4.33;2.50;;;;;;;;;;5012752;28;20210;-81
2022/11/21 02:30:59;;;;;;;9.77;3.00;;;;;;;;;;5011844;28;20235;-82
2022/11/21 02:33:26;;;;;;;10.50;3.47;;;;;;;;;;4993588;28;20200;-80
2022/11/21 02:35:58;;;;;;;5.13;2.20;;;;;;;;;;5003695;28;20595;-81
2022/11/21 02:38:28;;;;;;;4.27;2.40;;;;;;;;;;5011485;28;20775;-81
2022/11/21 02:40:59;;;;;;;12.40;2.70;;;;;;;;;;5004744;28;20238;-81
2022/11/21 02:43:30;;;;;;;6.53;2.87;;;;;;;;;;4993611;28;20199;-81
2022/11/21 02:45:58;;;;;;;8.33;2.97;;;;;;;;;;5011293;28;20231;-81
2022/11/21 02:48:25;;;;;;;5.93;2.80;;;;;;;;;;5012443;28;20293;-81
2022/11/21 02:50:52;;;;;;;12.00;3.20;;;;;;;;;;5011425;28;20616;-82
2022/11/21 02:53:19;;;;;;;10.03;3.13;;;;;;;;;;5011953;28;20207;-82
2022/11/21 02:55:46;;;;;;;9.97;2.90;;;;;;;;;;5009669;28;20261;-81
2022/11/21 02:58:13;;;;;;;10.00;3.20;;;;;;;;;;4997106;28;20230;-81
2022/11/21 03:00:42;;;;;;;5.70;2.83;;;;;;;;;;5001024;28;20227;-81
2022/11/21 03:03:09;;;;;;;6.23;2.57;;;;;;;;;;5012540;28;20677;-81
2022/11/21 03:05:36;;;;;;;6.03;2.53;;;;;;;;;;5012602;28;20235;-81
2022/11/21 03:08:03;;;;;;;2.57;2.20;;;;;;;;;;5012091;28;20207;-81
2022/11/21 03:10:31;;;;;;;3.80;2.33;;;;;;;;;;5007239;28;20234;-81
2022/11/21 03:13:00;;;;;;;6.33;2.60;;;;;;;;;;5013169;28;20223;-81
2022/11/21 03:15:27;;;;;;;7.10;2.87;;;;;;;;;;5010833;28;20574;-81
2022/11/21 03:17:56;;;;;;;11.30;3.30;;;;;;;;;;5011540;28;20227;-81
2022/11/21 03:20:23;;;;;;;8.70;2.90;;;;;;;;;;5012300;28;20223;-81
2022/11/21 03:22:52;;;;;;;6.30;2.03;;;;;;;;;;4997220;28;20203;-80
2022/11/21 03:25:19;;;;;;;8.60;2.57;;;;;;;;;;5002540;28;20203;-81
2022/11/21 03:27:46;;;;;;;5.87;2.57;;;;;;;;;;5012642;28;20208;-81
2022/11/21 03:30:14;;;;;;;3.97;2.30;;;;;;;;;;5010799;28;20223;-81
2022/11/21 03:32:41;;;;;;;7.07;2.87;;;;;;;;;;5001189;28;20664;-81
2022/11/21 03:35:10;;;;;;;13.23;2.97;;;;;;;;;;5001984;28;20211;-81
2022/11/21 03:37:37;;;;;;;5.77;2.60;;;;;;;;;;5010958;28;20238;-81
2022/11/21 03:40:04;;;;;;;5.47;3.10;;;;;;;;;;5018244;28;20229;-81
2022/11/21 03:42:32;;;;;;;8.70;2.40;;;;;;;;;;5019350;28;20239;-81
2022/11/21 03:44:59;;;;;;;9.40;2.80;;;;;;;;;;5012260;28;20537;-80
2022/11/21 03:47:26;;;;;;;6.77;2.63;;;;;;;;;;5011870;28;20231;-81
2022/11/21 03:49:53;;;;;;;7.17;2.60;;;;;;;;;;4998804;28;20672;-84
2022/11/21 03:52:21;;;;;;;7.77;2.73;;;;;;;;;;5010271;28;20607;-84
2022/11/21 03:54:49;;;;;;;8.57;2.63;;;;;;;;;;5011866;28;20585;-81
2022/11/21 03:57:16;;;;;;;8.10;2.57;;;;;;;;;;4992047;28;20716;-81
2022/11/21 03:59:43;;;;;;;6.70;2.50;;;;;;;;;;5011913;28;20753;-81
2022/11/21 04:02:10;;;;;;;15.80;7.47;;;;;;;;;;5002792;28;20572;-82
2022/11/21 04:04:37;;;;;;;2.87;2.23;;;;;;;;;;5001722;28;20214;-81
2022/11/21 04:07:04;;;;;;;4.60;2.60;;;;;;;;;;5009914;28;20227;-82
2022/11/21 04:09:32;;;;;;;4.90;2.53;;;;;;;;;;5010051;28;20228;-81
2022/11/21 04:11:59;;;;;;;5.23;2.40;;;;;;;;;;4992108;28;20788;-81
2022/11/21 04:14:26;;;;;;;5.40;2.70;;;;;;;;;;4994049;28;20208;-81
2022/11/21 04:16:53;;;;;;;6.33;3.13;;;;;;;;;;4997662;28;20238;-82
2022/11/21 04:19:21;;;;;;;6.20;3.00;;;;;;;;;;5002224;28;20585;-82
2022/11/21 04:21:48;;;;;;;4.40;2.30;;;;;;;;;;5004757;28;20258;-82
2022/11/21 04:24:15;;;;;;;4.53;2.60;;;;;;;;;;5003705;28;20203;-83
2022/11/21 04:26:43;;;;;;;7.63;2.83;;;;;;;;;;4994961;28;20235;-82
2022/11/21 04:29:10;;;;;;;5.80;3.03;;;;;;;;;;4993640;28;20216;-82
2022/11/21 04:31:37;;;;;;;4.67;2.70;;;;;;;;;;5001159;28;20250;-82
2022/11/21 04:34:04;;;;;;;3.80;2.40;;;;;;;;;;5002229;28;20210;-82
2022/11/21 04:36:32;;;;;;;10.53;4.03;;;;;;;;;;5011001;28;20227;-82
2022/11/21 04:38:59;;;;;;;3.83;2.70;;;;;;;;;;5011403;28;20227;-82
2022/11/21 04:41:26;;;;;;;3.73;2.70;;;;;;;;;;5011412;28;20239;-82
2022/11/21 04:43:54;;;;;;;7.17;3.03;;;;;;;;;;5011752;28;20218;-81
2022/11/21 04:46:21;;;;;;;3.33;2.90;;;;;;;;;;5010905;28;20235;-81
2022/11/21 04:48:48;;;;;;;6.50;2.70;;;;;;;;;;5011540;28;20210;-82
2022/11/21 04:51:15;;;;;;;4.63;2.43;;;;;;;;;;5011025;28;20338;-81
2022/11/21 04:53:42;;;;;;;5.50;2.77;;;;;;;;;;5011499;28;20218;-81
2022/11/21 04:56:09;;;;;;;2.87;2.50;;;;;;;;;;5011423;28;20235;-84
2022/11/21 04:58:37;;;;;;;8.70;3.00;;;;;;;;;;5011582;28;20246;-83
2022/11/21 05:01:09;;;;;;;3.80;2.63;;;;;;;;;;5011398;28;20246;-83
2022/11/21 05:03:36;;;;;;;5.57;2.63;;;;;;;;;;5011870;28;20207;-83
2022/11/21 05:06:03;;;;;;;7.03;2.87;;;;;;;;;;5010173;28;20232;-82
2022/11/21 05:08:30;;;;;;;5.57;2.60;;;;;;;;;;5012072;28;20221;-85
2022/11/21 05:13:42;;;;;;;2.83;2.20;;;;;;;;;;5014406;28;20182;-84
2022/11/21 05:16:10;;;;;;;8.57;2.70;;;;;;;;;;5018039;28;20720;-84
2022/11/21 05:18:38;;;;;;;5.10;2.67;;;;;;;;;;5024393;28;20230;-84
2022/11/21 05:21:05;;;;;;;6.13;2.70;;;;;;;;;;5023564;28;20615;-84
2022/11/21 05:23:32;;;;;;;6.47;2.73;;;;;;;;;;5023526;28;20207;-82
2022/11/21 05:25:59;;;;;;;7.27;2.80;;;;;;;;;;5020063;28;20231;-81
2022/11/21 05:28:26;;;;;;;6.77;2.73;;;;;;;;;;5033497;28;20180;-83
2022/11/21 05:30:53;;;;;;;3.80;2.87;;;;;;;;;;5015007;28;20605;-82
2022/11/21 05:33:21;;;;;;;5.17;2.30;;;;;;;;;;5015290;28;20207;-82
2022/11/21 05:35:49;;;;;;;5.77;2.50;;;;;;;;;;5014821;28;20231;-82
2022/11/21 05:38:16;;;;;;;2.97;2.60;;;;;;;;;;5014636;28;20707;-82
2022/11/21 05:40:43;;;;;;;5.13;2.50;;;;;;;;;;5010785;28;20742;-81
2022/11/21 05:45:55;;;;;;;4.90;2.60;;;;;;;;;;5013901;28;20754;-81
2022/11/21 05:48:24;;;;;;;4.03;2.73;;;;;;;;;;5014935;28;20286;-81
2022/11/21 05:50:51;;;;;;;5.03;2.30;;;;;;;;;;5027817;23;20658;-82
2022/11/21 05:53:18;;;;;;;2.57;2.37;;;;;;;;;;5005943;28;20227;-82
2022/11/21 05:55:45;;;;;;;3.33;2.60;;;;;;;;;;5013637;28;20703;-82
2022/11/21 05:58:12;;;;;;;4.80;2.60;;;;;;;;;;5013725;28;20223;-82
2022/11/21 06:00:39;;;;;;;10.10;2.40;;;;;;;;;;5013432;28;20239;-82
2022/11/21 06:05:53;;;;;;;3.60;2.47;;;;;;;;;;4994039;28;20714;-82
2022/11/21 06:08:20;;;;;;;3.97;2.33;;;;;;;;;;4994021;28;20690;-81
2022/11/21 06:10:47;;;;;;;2.60;2.37;;;;;;;;;;4993840;28;20251;-81
2022/11/21 06:13:23;;;;;;;2.97;2.13;;;;;;;;;;4988345;28;20280;-81
2022/11/21 06:15:51;;;;;;;6.37;2.80;;;;;;;;;;4981911;28;20231;-79
2022/11/21 06:18:19;;;;;;;6.40;2.60;;;;;;;;;;4984897;28;20241;-80
2022/11/21 06:20:46;;;;;;;2.20;2.00;;;;;;;;;;4982512;28;20233;-79
2022/11/21 06:23:14;;;;;;;2.50;2.30;;;;;;;;;;4985595;28;20211;-79
2022/11/21 06:25:42;;;;;;;3.43;2.37;;;;;;;;;;4979052;28;20605;-79
2022/11/21 06:28:09;;;;;;;4.00;3.03;;;;;;;;;;4982566;28;20657;-79
2022/11/21 06:30:36;;;;;;;2.93;2.30;;;;;;;;;;4983083;28;20339;-79
2022/11/21 06:33:04;;;;;;;4.10;2.33;;;;;;;;;;4984655;28;20215;-79
2022/11/21 06:35:31;;;;;;;2.30;2.10;;;;;;;;;;4980309;28;20294;-79
2022/11/21 06:37:59;;;;;;;1.40;1.40;;;;;;;;;;4979875;28;20207;-79
2022/11/21 06:40:27;;;;;;;2.40;2.20;;;;;;;;;;4983898;28;20218;-79
2022/11/21 06:42:54;;;;;;;2.90;2.10;;;;;;;;;;4981711;28;20199;-78
2022/11/21 06:45:21;;;;;;;2.47;2.27;;;;;;;;;;4983932;28;20601;-79
2022/11/21 06:47:48;;;;;;;4.37;2.50;;;;;;;;;;4984392;28;20203;-79
2022/11/21 06:50:15;;;;;;;3.37;2.30;;;;;;;;;;4985757;28;20236;-79
2022/11/21 06:52:43;;;;;;;5.30;2.80;;;;;;;;;;4982367;28;20217;-78
2022/11/21 06:55:10;;;;;;;6.73;2.67;;;;;;;;;;4984753;28;20200;-78
2022/11/21 06:57:38;;;;;;;5.30;2.40;;;;;;;;;;4997048;28;20200;-78
2022/11/21 07:00:06;;;;;;;3.53;2.53;;;;;;;;;;4992753;28;20734;-78
2022/11/21 07:02:33;;;;;;;3.63;2.20;;;;;;;;;;4992793;28;20320;-78
2022/11/21 07:05:00;;;;;;;3.27;2.80;;;;;;;;;;4993076;28;20212;-78
2022/11/21 07:07:27;;;;;;;2.50;2.20;;;;;;;;;;4992564;28;20240;-79
2022/11/21 07:09:54;;;;;;;3.17;2.23;;;;;;;;;;4992773;28;20611;-78
2022/11/21 07:15:08;;;;;;;6.20;3.17;;;;;;;;;;4992931;28;20659;-78
2022/11/21 07:17:35;;;;;;;2.63;2.43;;;;;;;;;;4981793;28;20235;-81
2022/11/21 07:20:02;;;;;;;3.63;2.07;;;;;;;;;;4986591;28;20246;-80
2022/11/21 07:22:29;;;;;;;4.03;2.50;;;;;;;;;;4986073;28;20235;-80
2022/11/21 07:24:56;;;;;;;4.03;2.57;;;;;;;;;;4986548;28;20219;-80
2022/11/21 07:27:24;;;;;;;4.23;2.67;;;;;;;;;;4988058;28;20242;-80
2022/11/21 07:29:51;;;;;;;3.17;2.30;;;;;;;;;;4985935;28;20218;-81
2022/11/21 07:32:19;;;;;;;3.60;2.33;;;;;;;;;;4985109;28;20896;-81
2022/11/21 07:34:46;;;;;;;2.70;2.00;;;;;;;;;;4988666;28;20675;-81
2022/11/21 07:37:13;;;;;;;3.63;2.57;;;;;;;;;;4983772;28;20546;-80
2022/11/21 07:39:40;;;;;;;3.23;2.83;;;;;;;;;;4985696;28;20622;-81
2022/11/21 07:42:07;;;;;;;2.37;2.27;;;;;;;;;;4984615;28;20238;-81
2022/11/21 07:44:34;;;;;;;2.60;2.17;;;;;;;;;;4984701;28;20225;-81
2022/11/21 07:47:01;;;;;;;7.00;1.97;;;;;;;;;;4985488;28;20224;-79
2022/11/21 07:49:30;;;;;;;3.77;2.50;;;;;;;;;;4987899;28;20218;-78
2022/11/21 07:51:57;;;;;;;3.53;2.40;;;;;;;;;;4987452;28;20238;-80
2022/11/21 07:54:24;;;;;;;4.10;2.80;;;;;;;;;;4985678;28;20208;-80
2022/11/21 07:56:51;;;;;;;4.43;2.60;;;;;;;;;;4984418;28;20239;-80
2022/11/21 07:59:18;;;;;;;3.60;2.50;;;;;;;;;;4987355;28;20224;-80
2022/11/21 08:01:45;;;;;;;3.77;2.37;;;;;;;;;;4981412;28;20240;-80
2022/11/21 08:04:12;;;;;;;4.00;2.80;;;;;;;;;;4986588;28;20204;-80
2022/11/21 08:06:41;;;;;;;2.77;2.23;;;;;;;;;;4988171;28;20243;-80
2022/11/21 08:09:08;;;;;;;5.13;2.60;;;;;;;;;;4985182;28;20204;-80
2022/11/21 08:11:36;;;;;;;3.67;2.00;;;;;;;;;;4983886;28;20235;-80
2022/11/21 08:14:03;;;;;;;2.50;2.20;;;;;;;;;;4986846;28;20216;-80
2022/11/21 08:16:31;;;;;;;4.07;2.50;;;;;;;;;;4986044;28;20243;-80
2022/11/21 08:18:59;;;;;;;4.60;2.70;;;;;;;;;;4984967;28;20243;-81
2022/11/21 08:21:26;;;;;;;3.10;2.63;;;;;;;;;;4981411;28;20232;-80
2022/11/21 08:23:54;;;;;;;8.30;2.73;;;;;;;;;;4985299;28;20290;-80
2022/11/21 08:26:22;;;;;;;5.37;2.50;;;;;;;;;;4986016;28;20306;-80
2022/11/21 08:28:49;;;;;;;2.87;2.23;;;;;;;;;;4986256;28;20550;-80
2022/11/21 08:31:16;;;;;;;3.70;2.67;;;;;;;;;;4986426;28;20669;-80
2022/11/21 08:33:43;;;;;;;4.40;2.40;;;;;;;;;;4986205;28;20212;-80
2022/11/21 08:36:10;;;;;;;5.67;2.67;;;;;;;;;;4983559;28;20632;-80
2022/11/21 08:38:38;;;;;;;5.63;2.57;;;;;;;;;;4986922;28;20216;-80
2022/11/21 08:43:51;;;;;;;7.30;3.17;;;;;;;;;;4988510;28;20227;-81
2022/11/21 08:46:18;;;;;;;5.57;2.80;;;;;;;;;;4991140;28;20597;-80
2022/11/21 08:48:45;;;;;;;5.03;2.50;;;;;;;;;;4993329;28;20575;-81
2022/11/21 08:51:12;;;;;;;6.20;3.30;;;;;;;;;;4982408;28;20256;-80
2022/11/21 08:53:39;;;;;;;3.53;2.40;;;;;;;;;;4986715;28;20215;-80
2022/11/21 08:56:07;;;;;;;3.97;2.57;;;;;;;;;;4986239;28;20231;-81
2022/11/21 08:58:34;;;;;;;4.77;2.90;;;;;;;;;;4982395;28;20220;-80
2022/11/21 09:01:01;;;;;;;5.20;2.80;;;;;;;;;;4986097;28;20716;-79
2022/11/21 09:03:28;;;;;;;4.30;2.60;;;;;;;;;;4990066;28;20204;-80
2022/11/21 09:05:56;;;;;;;4.57;2.60;;;;;;;;;;4984327;28;20228;-80
2022/11/21 09:08:24;;;;;;;4.63;3.00;;;;;;;;;;4994773;28;20212;-81
2022/11/21 09:10:51;;;;;;;3.30;2.23;;;;;;;;;;4994327;28;20235;-80
2022/11/21 09:13:19;;;;;;;5.10;2.77;;;;;;;;;;4995090;28;20234;-80
2022/11/21 09:18:31;;;;;;;3.77;2.57;;;;;;;;;;4994505;28;20206;-81
2022/11/21 09:20:58;;;;;;;3.83;2.80;;;;;;;;;;4974578;28;20248;-81
2022/11/21 09:23:25;;;;;;;5.83;3.00;;;;;;;;;;4975399;28;20215;-80
2022/11/21 09:25:53;;;;;;;3.93;2.90;;;;;;;;;;4974857;28;20240;-82
2022/11/21 09:28:21;;;;;;;5.93;2.73;;;;;;;;;;4976148;28;20216;-81
2022/11/21 09:30:48;;;;;;;4.57;2.73;;;;;;;;;;4994040;28;20240;-80
2022/11/21 09:33:16;;;;;;;3.20;2.47;;;;;;;;;;4994324;28;20223;-81
2022/11/21 09:35:44;;;;;;;5.07;2.80;;;;;;;;;;4994251;28;20240;-80
2022/11/21 09:38:11;;;;;;;2.57;2.40;;;;;;;;;;4994282;28;20245;-82
2022/11/21 09:40:42;;;;;;;6.37;2.43;;;;;;;;;;4993835;28;20243;-81
2022/11/21 09:43:26;;;;;;;5.23;3.37;;;;;;;;;;4994195;28;20212;-81
2022/11/21 09:45:56;;;;;;;4.80;2.93;;;;;;;;;;4993785;28;20239;-81
2022/11/21 09:48:28;;;;;;;4.80;2.60;;;;;;;;;;4994289;28;20223;-81
2022/11/21 09:50:58;;;;;;;6.00;2.50;;;;;;;;;;4993782;28;20239;-81
2022/11/21 09:53:28;;;;;;;6.47;3.40;;;;;;;;;;4994319;28;20211;-81
2022/11/21 09:55:58;;;;;;;4.23;2.50;;;;;;;;;;4988573;28;20237;-81
2022/11/21 09:58:29;;;;;;;2.93;2.30;;;;;;;;;;4988279;28;20633;-81
2022/11/21 10:00:56;;;;;;;5.33;2.53;;;;;;;;;;4985006;28;20244;-81
2022/11/21 10:03:26;;;;;;;4.17;2.60;;;;;;;;;;4974726;28;20312;-80
2022/11/21 10:05:55;;;;;;;4.00;2.30;;;;;;;;;;4973940;28;20243;-81
2022/11/21 10:08:26;;;;;;;6.17;2.53;;;;;;;;;;4974283;28;20219;-81
2022/11/21 10:10:55;;;;;;;3.97;2.80;;;;;;;;;;4973698;28;20241;-81
2022/11/21 10:13:33;;;;;;;3.83;2.40;;;;;;;;;;4974572;28;20212;-81
2022/11/21 10:16:04;;;;;;;3.93;2.37;;;;;;;;;;4973703;28;20245;-81
2022/11/21 10:18:36;;;;;;;7.40;2.33;;;;;;;;;;4974090;28;20216;-81
2022/11/21 10:21:06;;;;;;;4.13;2.40;;;;;;;;;;4973509;28;20255;-81
2022/11/21 10:23:51;;;;;;;3.00;2.23;;;;;;;;;;4977110;28;20209;-81
2022/11/21 10:26:21;;;;;;;4.47;2.90;;;;;;;;;;4993093;28;20235;-81
2022/11/21 10:28:52;;;;;;;3.37;2.67;;;;;;;;;;4993495;28;20212;-81
2022/11/21 10:31:19;;;;;;;6.37;2.40;;;;;;;;;;4992937;28;20243;-81
2022/11/21 10:33:47;;;;;;;4.40;2.73;;;;;;;;;;4993575;28;20215;-81
2022/11/21 10:36:25;;;;;;;1.90;1.80;;;;;;;;;;4993149;28;20240;-81
2022/11/21 10:38:54;;;;;;;4.03;2.23;;;;;;;;;;4992937;28;20212;-81
2022/11/21 10:41:23;;;;;;;3.23;2.10;;;;;;;;;;4992792;28;20334;-81
2022/11/21 10:46:54;;;;;;;5.33;2.67;;;;;;;;;;4992871;28;20246;-81
2022/11/21 10:49:21;;;;;;;3.57;2.10;;;;;;;;;;4992811;28;20208;-81
2022/11/21 10:51:52;;;;;;;2.77;2.30;;;;;;;;;;4992396;28;20235;-81
2022/11/21 10:54:35;;;;;;;2.30;1.90;;;;;;;;;;4993034;28;20235;-81
2022/11/21 10:57:07;;;;;;;5.20;2.63;;;;;;;;;;4995332;28;20231;-81
2022/11/21 10:59:35;;;;;;;4.30;2.40;;;;;;;;;;5012204;28;20222;-81
2022/11/21 11:02:04;;;;;;;5.10;2.50;;;;;;;;;;5011808;28;20242;-81
2022/11/21 11:04:32;;;;;;;3.97;2.23;;;;;;;;;;5012335;28;20273;-81
2022/11/21 11:07:14;;;;;;;3.07;2.30;;;;;;;;;;5011687;28;20258;-81
2022/11/21 11:09:45;;;;;;;3.60;2.20;;;;;;;;;;5012170;28;20213;-81
2022/11/21 11:12:20;;;;;;;3.97;2.30;;;;;;;;;;5011282;28;20773;-81
2022/11/21 11:14:52;;;;;;;4.67;2.30;;;;;;;;;;5012456;28;20243;-81
2022/11/21 11:17:26;;;;;;;2.73;2.23;;;;;;;;;;5011844;28;20243;-81
2022/11/21 11:20:00;;;;;;;2.50;2.00;;;;;;;;;;4991524;28;20232;-81
2022/11/21 11:22:28;;;;;;;2.50;2.10;;;;;;;;;;4992326;28;20236;-81
2022/11/21 11:24:55;;;;;;;4.23;2.50;;;;;;;;;;4992304;28;20258;-81
2022/11/21 11:27:27;;;;;;;2.17;1.97;;;;;;;;;;4991823;28;20251;-81
2022/11/21 11:29:55;;;;;;;5.27;2.13;;;;;;;;;;4992341;28;20228;-81
2022/11/21 11:32:23;;;;;;;3.50;2.03;;;;;;;;;;4992120;28;20240;-81
2022/11/21 11:34:58;;;;;;;5.50;2.90;;;;;;;;;;4990550;28;20208;-81
2022/11/21 11:37:30;;;;;;;3.67;2.37;;;;;;;;;;4991838;28;20583;-81
2022/11/21 11:40:05;;;;;;;3.50;1.97;;;;;;;;;;4992011;28;20276;-83
2022/11/21 11:48:28;;;;;;;4.27;2.00;;;;;;;;;;4992200;28;20211;-82
2022/11/21 11:50:57;;;;;;;4.57;2.17;;;;;;;;;;4991753;28;20615;-80
2022/11/21 11:53:27;;;;;;;2.37;2.17;;;;;;;;;;4991853;28;20212;-77
2022/11/21 11:55:56;;;;;;;4.93;2.67;;;;;;;;;;4991323;28;20704;-76
2022/11/21 11:58:26;;;;;;;3.77;2.50;;;;;;;;;;5005417;28;20678;-78
2022/11/21 12:00:58;;;;;;;7.00;2.33;;;;;;;;;;5010778;28;20239;-77
2022/11/21 12:03:30;;;;;;;6.37;3.20;;;;;;;;;;5011592;28;20207;-76
2022/11/21 12:06:00;;;;;;;6.87;3.37;;;;;;;;;;5010730;28;20266;-76
2022/11/21 12:08:29;;;;;;;3.80;2.70;;;;;;;;;;5011162;28;20209;-77
2022/11/21 12:13:49;;;;;;;5.03;2.80;;;;;;;;;;5011476;28;20230;-77
2022/11/21 12:16:17;;;;;;;4.43;2.40;;;;;;;;;;5011118;28;20243;-77
2022/11/21 12:18:49;;;;;;;2.27;2.07;;;;;;;;;;5011147;28;20215;-77
2022/11/21 12:21:17;;;;;;;2.00;1.90;;;;;;;;;;5008042;28;20250;-78
2022/11/21 12:23:45;;;;;;;6.20;2.23;;;;;;;;;;4994207;28;20680;-77
2022/11/21 12:26:21;;;;;;;5.80;2.30;;;;;;;;;;4995351;28;20779;-78
2022/11/21 12:28:55;;;;;;;4.83;2.23;;;;;;;;;;4995517;28;20207;-77
2022/11/21 12:31:27;;;;;;;5.70;2.30;;;;;;;;;;4995338;28;20242;-77
2022/11/21 12:33:58;;;;;;;1.70;1.60;;;;;;;;;;4995524;28;20687;-77
2022/11/21 12:36:32;;;;;;;3.53;2.00;;;;;;;;;;4995303;28;20235;-78
2022/11/21 12:39:23;;;;;;;6.60;2.60;;;;;;;;;;4995173;28;20207;-77
2022/11/21 12:45:03;;;;;;;5.73;2.30;;;;;;;;;;4964537;28;20208;-78
2022/11/21 12:54:29;;;;;;;5.17;2.23;;;;;;;;;;4960908;28;20242;-78
2022/11/21 12:56:06;;;;;;;3.53;2.40;;;;;;;;;;4993861;28;20315;-79
2022/11/21 12:58:36;;;;;;;5.07;2.13;;;;;;;;;;4995234;28;20192;-78
2022/11/21 13:01:08;;;;;;;3.90;2.30;;;;;;;;;;4994211;28;20240;-77
2022/11/21 13:03:44;;;;;;;4.93;1.90;;;;;;;;;;4995162;28;20592;-77
2022/11/21 13:06:14;;;;;;;2.77;1.90;;;;;;;;;;4994322;28;20716;-78
2022/11/21 13:08:42;;;;;;;4.40;2.57;;;;;;;;;;4994787;28;20218;-78
2022/11/21 13:14:00;;;;;;;6.50;2.27;;;;;;;;;;4994580;28;20195;-78
2022/11/21 13:16:36;;;;;;;2.70;2.47;;;;;;;;;;4993618;28;20255;-77
2022/11/21 13:19:05;;;;;;;4.07;2.30;;;;;;;;;;4985016;28;20208;-77
2022/11/21 13:21:40;;;;;;;5.23;2.33;;;;;;;;;;4983885;28;20724;-78
2022/11/21 13:24:08;;;;;;;5.40;2.50;;;;;;;;;;4986193;28;20195;-78
2022/11/21 13:26:52;;;;;;;6.17;2.20;;;;;;;;;;4984674;28;20240;-77
2022/11/21 13:29:19;;;;;;;5.13;2.00;;;;;;;;;;4987978;28;20208;-77
2022/11/21 13:31:46;;;;;;;4.17;2.10;;;;;;;;;;4984219;28;20229;-77
2022/11/21 13:34:32;;;;;;;6.23;2.73;;;;;;;;;;4977290;28;20217;-78
2022/11/21 13:37:01;;;;;;;3.93;2.23;;;;;;;;;;4974487;28;20232;-78
2022/11/21 13:39:29;;;;;;;2.60;2.00;;;;;;;;;;4974884;28;20208;-78
2022/11/21 13:44:45;;;;;;;4.97;2.37;;;;;;;;;;4974885;28;20199;-78
2022/11/21 13:47:30;;;;;;;2.63;2.27;;;;;;;;;;4974275;28;20251;-78
2022/11/21 13:50:01;;;;;;;6.73;2.40;;;;;;;;;;4974367;28;20239;-78
2022/11/21 13:52:32;;;;;;;5.50;2.73;;;;;;;;;;4974309;28;20233;-77
2022/11/21 13:55:08;;;;;;;7.83;2.47;;;;;;;;;;4974563;28;20232;-78
2022/11/21 13:57:49;;;;;;;5.47;2.63;;;;;;;;;;4988992;28;20227;-78
2022/11/21 14:00:22;;;;;;;5.27;3.27;;;;;;;;;;5013204;28;20242;-78
2022/11/21 14:03:07;;;;;;;6.77;3.87;;;;;;;;;;5013562;28;20211;-78
2022/11/21 14:05:52;;;;;;;4.17;3.07;;;;;;;;;;5013182;28;20239;-78
2022/11/21 14:08:22;;;;;;;6.63;2.97;;;;;;;;;;5003437;28;20218;-78
2022/11/21 14:10:50;;;;;;;6.53;3.30;;;;;;;;;;5013052;28;20243;-78
2022/11/21 14:13:22;;;;;;;6.47;4.27;;;;;;;;;;5013133;28;20607;-78
2022/11/21 14:15:53;;;;;;;5.00;2.83;;;;;;;;;;5012819;28;20277;-78
2022/11/21 14:18:21;;;;;;;4.00;2.40;;;;;;;;;;5012864;28;20214;-78
2022/11/21 14:20:52;;;;;;;5.90;2.50;;;;;;;;;;5012679;28;20263;-78
2022/11/21 14:23:21;;;;;;;3.87;2.20;;;;;;;;;;5012947;28;20294;-78
2022/11/21 14:25:50;;;;;;;7.27;2.50;;;;;;;;;;5012799;28;20243;-78
2022/11/21 14:28:22;;;;;;;3.07;2.33;;;;;;;;;;5012344;28;20656;-78
2022/11/21 14:30:56;;;;;;;3.17;2.33;;;;;;;;;;5012451;28;20242;-78
2022/11/21 14:33:24;;;;;;;7.13;2.73;;;;;;;;;;5012817;28;20566;-78
2022/11/21 14:35:53;;;;;;;4.13;2.67;;;;;;;;;;5012282;28;20242;-78
2022/11/21 14:38:21;;;;;;;7.20;3.10;;;;;;;;;;5012674;28;20211;-78
2022/11/21 14:40:49;;;;;;;3.00;2.33;;;;;;;;;;5012262;28;20235;-78
2022/11/21 14:43:24;;;;;;;4.93;2.70;;;;;;;;;;5012780;28;20560;-78
2022/11/21 14:45:51;;;;;;;8.27;3.43;;;;;;;;;;5011313;28;20234;-78
2022/11/21 14:48:25;;;;;;;8.57;2.70;;;;;;;;;;5012222;28;20218;-78
2022/11/21 14:50:52;;;;;;;6.70;2.40;;;;;;;;;;5012033;28;20719;-78
2022/11/21 14:53:21;;;;;;;4.37;2.23;;;;;;;;;;5006016;28;20553;-79
2022/11/21 14:55:51;;;;;;;6.93;2.40;;;;;;;;;;4991658;28;20247;-79
2022/11/21 14:58:18;;;;;;;4.20;3.20;;;;;;;;;;4992785;28;20259;-79
2022/11/21 15:01:01;;;;;;;5.60;2.77;;;;;;;;;;4992302;28;20662;-79
2022/11/21 15:03:28;;;;;;;7.43;2.63;;;;;;;;;;4989016;28;20208;-78
2022/11/21 15:05:59;;;;;;;6.10;2.60;;;;;;;;;;4991906;28;20230;-80
2022/11/21 15:08:27;;;;;;;5.57;2.40;;;;;;;;;;4991421;28;20231;-80
2022/11/21 15:10:55;;;;;;;3.60;2.70;;;;;;;;;;4992450;28;20251;-80
2022/11/21 15:13:25;;;;;;;4.90;2.53;;;;;;;;;;4992474;28;20679;-80
2022/11/21 15:15:54;;;;;;;10.93;3.17;;;;;;;;;;4990011;28;20290;-79
2022/11/21 15:18:22;;;;;;;3.57;2.47;;;;;;;;;;4986663;28;20594;-79
2022/11/21 15:20:50;;;;;;;6.07;2.53;;;;;;;;;;4978456;28;20700;-78
2022/11/21 15:23:27;;;;;;;6.27;2.93;;;;;;;;;;4987479;28;20200;-79
2022/11/21 15:25:55;;;;;;;6.97;2.70;;;;;;;;;;4991575;28;20249;-79
2022/11/21 15:28:22;;;;;;;5.90;2.73;;;;;;;;;;4978767;28;20205;-79
2022/11/21 15:31:09;;;;;;;5.57;3.17;;;;;;;;;;4986418;28;20685;-79
2022/11/21 15:33:52;;;;;;;7.93;3.07;;;;;;;;;;4984502;28;20210;-78
2022/11/21 15:36:20;;;;;;;4.87;2.77;;;;;;;;;;4991035;28;20239;-78